Time;durP1;ratioP1;P1;durP2;ratioP2;P2;SDS_P1;SDS_P2;PMS_P1;PMS_P2;Temp;Humidity;BMP_temperature;BMP_pressure;BME280_temperature;BME280_humidity;BME280_pressure;Samples;Min_cycle;Max_cycle;Signal;HPM_P1;HPM_P2
2021/12/20 00:02:22;;;;;;;3.70;0.75;;;;;13.60;102645.00;;;;5089413;28;20656;-80
2021/12/20 00:04:52;;;;;;;6.95;1.27;;;;;13.70;102646.00;;;;5085491;28;20257;-80
2021/12/20 00:07:19;;;;;;;2.92;0.93;;;;;13.60;102648.00;;;;5071014;28;20200;-81
2021/12/20 00:09:48;;;;;;;4.47;0.57;;;;;13.60;102651.00;;;;5070861;28;20237;-82
2021/12/20 00:12:15;;;;;;;4.00;0.60;;;;;13.60;102656.00;;;;5070575;28;20201;-81
2021/12/20 00:14:42;;;;;;;4.95;0.95;;;;;13.60;102639.00;;;;5070262;28;20198;-80
2021/12/20 00:17:10;;;;;;;4.57;1.33;;;;;13.60;102633.00;;;;5070591;28;20195;-82
2021/12/20 00:19:37;;;;;;;4.00;1.08;;;;;13.60;102627.00;;;;5070778;28;20199;-80
2021/12/20 00:22:04;;;;;;;4.20;0.73;;;;;13.60;102640.00;;;;5070504;28;20198;-80
2021/12/20 00:24:32;;;;;;;7.28;0.73;;;;;13.60;102632.00;;;;5076193;28;20210;-80
2021/12/20 00:27:03;;;;;;;4.35;0.47;;;;;13.50;102639.00;;;;5069790;28;20191;-82
2021/12/20 00:29:30;;;;;;;2.83;0.40;;;;;13.50;102620.00;;;;5069545;28;20218;-80
2021/12/20 00:31:57;;;;;;;5.43;0.75;;;;;13.50;102624.00;;;;5069597;28;20568;-80
2021/12/20 00:34:24;;;;;;;2.92;0.85;;;;;13.50;102626.00;;;;5069606;28;20198;-80
2021/12/20 00:37:01;;;;;;;3.05;0.65;;;;;13.50;102621.00;;;;5070106;28;20196;-82
2021/12/20 00:42:15;;;;;;;4.68;0.68;;;;;13.50;102630.00;;;;5082297;28;20206;-80
2021/12/20 00:44:42;;;;;;;1.92;0.82;;;;;13.40;102620.00;;;;5071200;28;20201;-82
2021/12/20 00:47:09;;;;;;;5.15;0.90;;;;;13.40;102616.00;;;;5085519;28;20206;-82
2021/12/20 00:49:37;;;;;;;3.60;0.57;;;;;13.40;102625.00;;;;5074361;28;20210;-82
2021/12/20 00:52:05;;;;;;;7.55;1.50;;;;;13.40;102629.00;;;;5083482;28;20668;-82
2021/12/20 00:54:32;;;;;;;5.47;1.05;;;;;13.40;102629.00;;;;5088308;28;20190;-80
2021/12/20 00:56:59;;;;;;;5.03;1.27;;;;;13.40;102623.00;;;;5081409;28;20207;-80
2021/12/20 00:59:28;;;;;;;1.92;0.50;;;;;13.40;102624.00;;;;5074845;28;20191;-82
2021/12/20 01:01:55;;;;;;;3.83;1.20;;;;;13.30;102623.00;;;;5088628;28;20198;-82
2021/12/20 01:04:23;;;;;;;7.05;1.10;;;;;13.30;102626.00;;;;5074627;28;20199;-82
2021/12/20 01:06:50;;;;;;;3.33;0.88;;;;;13.30;102633.00;;;;5076550;28;20234;-80
2021/12/20 01:09:17;;;;;;;4.75;1.10;;;;;13.30;102630.00;;;;5068816;28;20782;-80
2021/12/20 01:11:50;;;;;;;5.30;0.90;;;;;13.30;102631.00;;;;5084306;28;20197;-80
2021/12/20 01:14:22;;;;;;;7.90;1.25;;;;;13.20;102622.00;;;;5078104;28;20210;-80
2021/12/20 01:16:51;;;;;;;2.95;0.60;;;;;13.20;102622.00;;;;5068387;28;20191;-80
2021/12/20 01:19:19;;;;;;;4.15;1.15;;;;;13.20;102628.00;;;;5068466;28;20226;-80
2021/12/20 01:21:47;;;;;;;2.70;0.77;;;;;13.20;102625.00;;;;5068538;28;20959;-80
2021/12/20 01:24:14;;;;;;;4.30;0.98;;;;;13.20;102631.00;;;;5068104;28;20226;-80
2021/12/20 01:26:41;;;;;;;6.63;1.15;;;;;13.20;102624.00;;;;5068837;28;20195;-80
2021/12/20 01:29:08;;;;;;;4.10;1.27;;;;;13.20;102629.00;;;;5068174;28;20661;-80
2021/12/20 01:31:36;;;;;;;4.15;0.82;;;;;13.20;102616.00;;;;5073730;28;20219;-80
2021/12/20 01:34:04;;;;;;;5.15;1.38;;;;;13.20;102618.00;;;;5067850;28;20197;-80
2021/12/20 01:36:32;;;;;;;4.25;0.98;;;;;13.20;102623.00;;;;5079397;28;20207;-80
2021/12/20 01:38:59;;;;;;;3.70;0.68;;;;;13.20;102617.00;;;;5068450;28;20218;-80
2021/12/20 01:41:27;;;;;;;12.35;1.10;;;;;13.20;102624.00;;;;5068089;28;20238;-80
2021/12/20 01:43:54;;;;;;;2.90;0.60;;;;;13.20;102616.00;;;;5068250;28;20206;-80
2021/12/20 01:46:23;;;;;;;9.50;1.00;;;;;13.20;102617.00;;;;5068256;28;20216;-80
2021/12/20 01:48:51;;;;;;;5.00;0.88;;;;;13.20;102618.00;;;;5082430;28;20631;-80
2021/12/20 01:51:43;;;;;;;6.43;1.35;;;;;13.20;102612.00;;;;5078608;28;20230;-80
2021/12/20 01:54:11;;;;;;;9.02;1.10;;;;;13.20;102620.00;;;;5068847;28;20662;-80
2021/12/20 01:56:41;;;;;;;4.82;0.82;;;;;13.20;102626.00;;;;5070029;28;20206;-80
2021/12/20 01:59:09;;;;;;;4.20;0.82;;;;;13.20;102620.00;;;;5069974;28;20205;-80
2021/12/20 02:01:38;;;;;;;4.80;0.90;;;;;13.20;102610.00;;;;5082380;28;20197;-80
2021/12/20 02:04:08;;;;;;;4.78;0.85;;;;;13.20;102618.00;;;;5088326;28;20204;-81
2021/12/20 02:06:39;;;;;;;3.08;0.75;;;;;13.10;102620.00;;;;5067782;28;20664;-80
2021/12/20 02:09:08;;;;;;;10.35;1.42;;;;;13.10;102619.00;;;;5085311;28;20214;-80
2021/12/20 02:11:37;;;;;;;4.32;0.98;;;;;13.10;102621.00;;;;5074052;28;20226;-80
2021/12/20 02:14:06;;;;;;;3.90;0.90;;;;;13.10;102615.00;;;;5082219;28;20201;-80
2021/12/20 02:16:34;;;;;;;6.05;1.00;;;;;13.20;102621.00;;;;5067370;28;20568;-80
2021/12/20 02:19:02;;;;;;;8.75;1.33;;;;;13.10;102617.00;;;;5067663;28;20203;-80
2021/12/20 02:21:32;;;;;;;4.40;1.05;;;;;13.10;102613.00;;;;5071390;28;20688;-80
2021/12/20 02:23:59;;;;;;;4.65;1.05;;;;;13.10;102612.00;;;;5067574;28;20199;-80
2021/12/20 02:26:26;;;;;;;9.60;1.25;;;;;13.10;102610.00;;;;5067217;28;20611;-80
2021/12/20 02:28:56;;;;;;;3.55;0.80;;;;;13.10;102609.00;;;;5067505;28;20657;-80
2021/12/20 02:39:43;;;;;;;5.13;1.52;;;;;13.10;102610.00;;;;5074191;28;20338;-81
2021/12/20 02:42:14;;;;;;;2.65;0.50;;;;;13.10;102593.00;;;;5067669;28;20195;-81
2021/12/20 02:44:48;;;;;;;10.75;1.75;;;;;13.10;102607.00;;;;5071791;28;20205;-80
2021/12/20 02:47:26;;;;;;;9.02;0.98;;;;;13.10;102603.00;;;;5068356;28;20198;-81
2021/12/20 02:49:54;;;;;;;4.35;1.02;;;;;13.10;102608.00;;;;5075216;28;20238;-81
2021/12/20 02:52:22;;;;;;;5.97;1.50;;;;;13.10;102596.00;;;;5090421;28;20201;-81
2021/12/20 02:54:49;;;;;;;3.58;0.73;;;;;13.10;102599.00;;;;5073269;28;20202;-81
2021/12/20 02:57:17;;;;;;;4.32;0.75;;;;;13.00;102590.00;;;;5071334;28;20198;-81
2021/12/20 02:59:44;;;;;;;6.53;0.93;;;;;13.00;102595.00;;;;5074126;28;20237;-81
2021/12/20 03:02:12;;;;;;;1.83;1.00;;;;;13.00;102599.00;;;;5090156;28;20201;-80
2021/12/20 03:04:40;;;;;;;5.97;1.00;;;;;13.00;102595.00;;;;5071298;28;20210;-80
2021/12/20 03:07:11;;;;;;;4.65;0.93;;;;;13.00;102593.00;;;;5089194;28;20226;-80
2021/12/20 03:09:48;;;;;;;4.32;0.90;;;;;12.90;102599.00;;;;5071222;28;20199;-80
2021/12/20 03:12:15;;;;;;;4.65;0.75;;;;;13.00;102603.00;;;;5075514;28;20202;-80
2021/12/20 03:14:46;;;;;;;2.15;0.50;;;;;13.00;102600.00;;;;5071348;28;20191;-80
2021/12/20 03:17:14;;;;;;;3.50;0.68;;;;;13.00;102599.00;;;;5071214;28;20226;-80
2021/12/20 03:19:41;;;;;;;3.67;0.75;;;;;13.00;102598.00;;;;5083687;28;20201;-80
2021/12/20 03:22:09;;;;;;;9.75;1.98;;;;;12.90;102600.00;;;;5075414;28;20198;-80
2021/12/20 03:24:36;;;;;;;3.38;0.73;;;;;13.00;102589.00;;;;5090965;28;20194;-80
2021/12/20 03:27:06;;;;;;;3.80;1.00;;;;;12.90;102596.00;;;;5090680;28;20194;-80
2021/12/20 03:29:34;;;;;;;5.60;0.98;;;;;12.90;102598.00;;;;5085944;28;20206;-80
2021/12/20 03:32:01;;;;;;;6.57;1.65;;;;;12.90;102593.00;;;;5070511;28;20238;-80
2021/12/20 03:34:28;;;;;;;4.55;1.05;;;;;12.90;102598.00;;;;5080188;28;20212;-80
2021/12/20 03:36:56;;;;;;;5.90;1.00;;;;;12.90;102594.00;;;;5071865;28;20202;-80
2021/12/20 03:39:23;;;;;;;5.50;1.38;;;;;12.90;102590.00;;;;5080979;28;20194;-80
2021/12/20 03:41:50;;;;;;;3.65;0.90;;;;;12.90;102597.00;;;;5072390;28;20199;-81
2021/12/20 03:44:19;;;;;;;6.25;1.20;;;;;12.90;102596.00;;;;5070993;28;20607;-80
2021/12/20 03:46:47;;;;;;;5.28;0.80;;;;;12.90;102584.00;;;;5071864;28;20199;-80
2021/12/20 03:49:14;;;;;;;5.88;0.98;;;;;12.90;102587.00;;;;5071265;28;20225;-81
2021/12/20 03:51:42;;;;;;;5.57;0.90;;;;;12.90;102589.00;;;;5071033;28;20234;-80
2021/12/20 03:54:09;;;;;;;5.35;1.10;;;;;12.90;102588.00;;;;5091302;28;20209;-81
2021/12/20 03:56:37;;;;;;;6.75;1.75;;;;;12.90;102583.00;;;;5090954;28;20202;-80
2021/12/20 03:59:05;;;;;;;3.50;0.63;;;;;12.90;102588.00;;;;5090263;28;20350;-81
2021/12/20 04:01:33;;;;;;;3.30;0.60;;;;;12.90;102591.00;;;;5090692;28;20203;-80
2021/12/20 04:04:02;;;;;;;3.40;1.13;;;;;12.90;102585.00;;;;5081954;28;20705;-80
2021/12/20 04:06:31;;;;;;;9.15;1.23;;;;;12.90;102587.00;;;;5070353;28;20230;-80
2021/12/20 04:08:58;;;;;;;10.00;1.35;;;;;12.90;102587.00;;;;5069892;28;20323;-80
2021/12/20 04:11:26;;;;;;;3.40;1.00;;;;;12.90;102589.00;;;;5069477;28;20222;-80
2021/12/20 04:13:56;;;;;;;5.93;1.25;;;;;12.90;102583.00;;;;5070541;28;20629;-81
2021/12/20 04:16:23;;;;;;;4.03;0.82;;;;;12.90;102586.00;;;;5080842;28;20904;-81
2021/12/20 04:18:52;;;;;;;5.57;1.55;;;;;12.80;102588.00;;;;5086345;28;20667;-80
2021/12/20 04:21:19;;;;;;;2.25;0.45;;;;;12.90;102584.00;;;;5075021;28;20199;-80
2021/12/20 04:23:47;;;;;;;3.88;0.90;;;;;12.90;102587.00;;;;5079433;28;20195;-80
2021/12/20 04:26:15;;;;;;;4.53;0.90;;;;;12.80;102585.00;;;;5071525;28;20194;-80
2021/12/20 04:28:42;;;;;;;6.43;1.10;;;;;12.80;102597.00;;;;5089935;28;20202;-81
2021/12/20 04:31:09;;;;;;;2.35;0.75;;;;;12.80;102589.00;;;;5073488;28;20313;-81
2021/12/20 04:33:37;;;;;;;4.47;0.65;;;;;12.80;102592.00;;;;5069129;28;20187;-80
2021/12/20 04:36:06;;;;;;;7.55;0.80;;;;;12.80;102595.00;;;;5078749;28;20201;-81
2021/12/20 04:38:34;;;;;;;5.07;0.80;;;;;12.80;102587.00;;;;5082976;28;20198;-81
2021/12/20 04:41:01;;;;;;;5.25;0.68;;;;;12.80;102592.00;;;;5070594;28;20564;-80
2021/12/20 04:43:28;;;;;;;3.28;1.08;;;;;12.80;102594.00;;;;5076959;28;20197;-81
2021/12/20 04:45:56;;;;;;;3.20;0.70;;;;;12.80;102581.00;;;;5082049;28;20221;-81
2021/12/20 04:48:23;;;;;;;3.95;0.80;;;;;12.80;102589.00;;;;5070799;28;20195;-80
2021/12/20 04:50:51;;;;;;;5.15;1.02;;;;;12.80;102590.00;;;;5090538;28;20237;-80
2021/12/20 04:53:19;;;;;;;4.60;1.13;;;;;12.70;102585.00;;;;5090446;28;20198;-81
2021/12/20 04:55:47;;;;;;;5.60;0.88;;;;;12.70;102589.00;;;;5078259;28;20292;-80
2021/12/20 04:58:14;;;;;;;4.72;0.75;;;;;12.70;102590.00;;;;5090211;28;20201;-80
2021/12/20 05:00:43;;;;;;;3.83;0.65;;;;;12.70;102585.00;;;;5076543;28;21083;-80
2021/12/20 05:03:11;;;;;;;5.20;1.55;;;;;12.70;102586.00;;;;5069254;28;20665;-80
2021/12/20 05:05:39;;;;;;;4.00;0.70;;;;;12.70;102588.00;;;;5069187;28;20270;-81
2021/12/20 05:08:07;;;;;;;5.60;1.00;;;;;12.70;102592.00;;;;5079325;28;20202;-80
2021/12/20 05:10:39;;;;;;;6.20;1.38;;;;;12.70;102589.00;;;;5088102;28;20282;-81
2021/12/20 05:13:08;;;;;;;5.05;0.75;;;;;12.70;102588.00;;;;5071902;28;20285;-80
2021/12/20 05:15:36;;;;;;;6.22;0.73;;;;;12.70;102591.00;;;;5071010;28;20718;-80
2021/12/20 05:18:05;;;;;;;8.57;0.90;;;;;12.70;102590.00;;;;5088508;28;20233;-80
2021/12/20 05:20:32;;;;;;;3.38;0.77;;;;;12.70;102591.00;;;;5071238;28;20194;-81
2021/12/20 05:23:00;;;;;;;4.15;0.85;;;;;12.70;102596.00;;;;5069062;28;20191;-80
2021/12/20 05:25:27;;;;;;;4.20;1.33;;;;;12.70;102597.00;;;;5068614;28;20195;-80
2021/12/20 05:27:56;;;;;;;5.50;1.55;;;;;12.70;102598.00;;;;5070848;28;20197;-80
2021/12/20 05:30:23;;;;;;;6.72;1.23;;;;;12.70;102601.00;;;;5082674;28;20680;-80
2021/12/20 05:32:51;;;;;;;5.00;0.95;;;;;12.70;102601.00;;;;5080093;28;20252;-80
2021/12/20 05:35:20;;;;;;;6.78;0.98;;;;;12.80;102604.00;;;;5073580;28;20191;-81
2021/12/20 05:37:47;;;;;;;3.35;1.15;;;;;12.80;102606.00;;;;5081023;28;20243;-81
2021/12/20 05:40:16;;;;;;;5.82;1.05;;;;;12.80;102608.00;;;;5078758;28;20202;-80
2021/12/20 05:42:45;;;;;;;4.57;0.80;;;;;12.80;102614.00;;;;5073995;28;20198;-81
2021/12/20 05:45:14;;;;;;;3.00;0.60;;;;;12.80;102617.00;;;;5073153;28;20241;-81
2021/12/20 05:47:42;;;;;;;4.20;1.05;;;;;12.80;102622.00;;;;5067793;28;20187;-81
2021/12/20 05:50:10;;;;;;;4.13;1.38;;;;;12.80;102622.00;;;;5069177;28;20225;-81
2021/12/20 05:52:37;;;;;;;2.72;0.47;;;;;12.80;102618.00;;;;5078077;28;20222;-81
2021/12/20 05:55:06;;;;;;;3.10;0.60;;;;;12.80;102622.00;;;;5068800;28;20210;-81
2021/12/20 06:03:06;;;;;;;7.35;0.95;;;;;12.80;102616.00;;;;5073564;28;20209;-83
2021/12/20 06:05:42;;;;;;;6.57;1.17;;;;;12.80;102620.00;;;;5086865;28;20249;-81
2021/12/20 06:08:13;;;;;;;10.23;1.17;;;;;12.80;102624.00;;;;5083565;28;20225;-82
2021/12/20 06:10:58;;;;;;;5.05;0.93;;;;;12.60;102617.00;;;;5069849;28;20707;-83
2021/12/20 06:13:25;;;;;;;8.18;1.20;;;;;12.70;102613.00;;;;5075086;28;20198;-81
2021/12/20 06:15:54;;;;;;;4.65;0.80;;;;;12.70;102619.00;;;;5071625;28;20388;-82
2021/12/20 06:18:21;;;;;;;4.85;1.00;;;;;12.70;102626.00;;;;5071645;28;20195;-82
2021/12/20 06:20:49;;;;;;;3.58;1.10;;;;;12.70;102618.00;;;;5071481;28;20195;-81
2021/12/20 06:23:16;;;;;;;2.78;1.02;;;;;12.70;102610.00;;;;5079736;28;20191;-82
2021/12/20 06:25:44;;;;;;;6.47;1.65;;;;;12.70;102615.00;;;;5076380;28;20198;-81
2021/12/20 06:28:11;;;;;;;3.50;0.68;;;;;12.70;102619.00;;;;5075619;28;21076;-81
2021/12/20 06:30:39;;;;;;;3.53;0.70;;;;;12.60;102627.00;;;;5075432;28;20541;-81
2021/12/20 06:33:08;;;;;;;1.67;0.73;;;;;12.60;102628.00;;;;5072211;28;20227;-82
2021/12/20 06:35:35;;;;;;;3.90;0.80;;;;;12.60;102627.00;;;;5075866;28;20696;-81
2021/12/20 06:38:05;;;;;;;4.57;0.95;;;;;12.60;102642.00;;;;5081722;28;20202;-81
2021/12/20 06:40:34;;;;;;;4.60;0.70;;;;;12.60;102638.00;;;;5075132;28;20202;-82
2021/12/20 06:43:03;;;;;;;2.80;0.80;;;;;12.60;102646.00;;;;5089465;28;20699;-81
2021/12/20 06:45:30;;;;;;;5.25;0.73;;;;;12.50;102639.00;;;;5084212;28;20205;-81
2021/12/20 06:47:58;;;;;;;3.05;0.73;;;;;12.50;102633.00;;;;5073277;28;20218;-81
2021/12/20 06:50:27;;;;;;;4.60;1.27;;;;;12.50;102644.00;;;;5075040;28;20230;-81
2021/12/20 06:52:54;;;;;;;5.90;1.23;;;;;12.50;102638.00;;;;5074349;28;20232;-81
2021/12/20 06:55:21;;;;;;;2.75;0.60;;;;;12.50;102646.00;;;;5071517;28;20230;-82
2021/12/20 06:57:49;;;;;;;3.63;0.45;;;;;12.50;102640.00;;;;5077145;28;20210;-82
2021/12/20 07:00:17;;;;;;;4.07;0.68;;;;;12.50;102644.00;;;;5073138;28;20201;-82
2021/12/20 07:02:44;;;;;;;3.70;0.98;;;;;12.50;102649.00;;;;5084381;28;20524;-81
2021/12/20 07:05:12;;;;;;;3.60;0.70;;;;;12.50;102663.00;;;;5080886;28;20230;-81
2021/12/20 07:07:40;;;;;;;5.70;0.85;;;;;12.50;102648.00;;;;5074454;28;20191;-81
2021/12/20 07:10:09;;;;;;;3.03;0.80;;;;;12.50;102641.00;;;;5071428;28;20263;-81
2021/12/20 07:12:38;;;;;;;3.67;0.93;;;;;12.50;102648.00;;;;5075963;28;20297;-81
2021/12/20 07:15:10;;;;;;;3.15;0.80;;;;;12.50;102657.00;;;;5078764;28;20252;-82
2021/12/20 07:17:38;;;;;;;3.85;0.80;;;;;12.50;102657.00;;;;5081075;28;20217;-82
2021/12/20 07:20:06;;;;;;;2.00;0.50;;;;;12.50;102651.00;;;;5072731;28;20575;-82
2021/12/20 07:22:34;;;;;;;3.65;1.08;;;;;12.60;102664.00;;;;5081467;28;20198;-82
2021/12/20 07:25:02;;;;;;;2.25;0.52;;;;;12.60;102655.00;;;;5085897;28;20197;-82
2021/12/20 07:27:30;;;;;;;2.63;0.60;;;;;12.60;102648.00;;;;5086609;28;20203;-83
2021/12/20 07:29:58;;;;;;;2.28;0.70;;;;;12.60;102649.00;;;;5074190;28;20194;-83
2021/12/20 07:32:25;;;;;;;2.00;0.50;;;;;12.60;102655.00;;;;5081244;28;20225;-83
2021/12/20 07:34:53;;;;;;;1.05;0.60;;;;;12.60;102657.00;;;;5070554;28;20218;-82
2021/12/20 07:37:21;;;;;;;4.10;1.10;;;;;12.60;102651.00;;;;5070130;28;20195;-82
2021/12/20 07:39:48;;;;;;;2.35;1.02;;;;;12.60;102653.00;;;;5071235;28;20195;-82
2021/12/20 07:42:17;;;;;;;2.25;0.60;;;;;12.60;102647.00;;;;5077397;28;20229;-81
2021/12/20 07:44:45;;;;;;;3.67;0.98;;;;;12.60;102656.00;;;;5079025;28;20586;-82
2021/12/20 07:47:12;;;;;;;6.60;1.02;;;;;12.60;102661.00;;;;5075478;28;20205;-83
2021/12/20 07:49:40;;;;;;;6.57;0.80;;;;;12.60;102656.00;;;;5070791;28;20195;-80
2021/12/20 07:52:08;;;;;;;1.90;0.68;;;;;12.60;102656.00;;;;5072887;28;20222;-82
2021/12/20 07:54:35;;;;;;;2.85;0.95;;;;;12.60;102655.00;;;;5069799;28;20195;-82
2021/12/20 07:57:03;;;;;;;4.13;1.08;;;;;12.60;102661.00;;;;5073200;28;20194;-82
2021/12/20 07:59:31;;;;;;;1.77;0.70;;;;;12.60;102654.00;;;;5073389;28;20191;-83
2021/12/20 08:01:59;;;;;;;5.65;0.70;;;;;12.60;102659.00;;;;5072393;28;20202;-83
2021/12/20 08:04:27;;;;;;;3.28;0.50;;;;;12.60;102650.00;;;;5069991;28;20191;-81
2021/12/20 08:06:54;;;;;;;3.50;0.45;;;;;12.60;102660.00;;;;5069606;28;20235;-82
2021/12/20 08:09:25;;;;;;;5.38;0.98;;;;;12.60;102663.00;;;;5070139;28;20579;-81
2021/12/20 08:11:52;;;;;;;3.78;0.85;;;;;12.60;102665.00;;;;5074724;28;20590;-80
2021/12/20 08:14:19;;;;;;;2.72;0.80;;;;;12.60;102666.00;;;;5077909;28;20250;-81
2021/12/20 08:16:48;;;;;;;3.25;0.80;;;;;12.60;102668.00;;;;5074331;28;20202;-83
2021/12/20 08:19:15;;;;;;;3.53;0.47;;;;;12.60;102671.00;;;;5072369;28;20201;-80
2021/12/20 08:21:42;;;;;;;4.57;0.80;;;;;12.60;102671.00;;;;5084719;28;20202;-79
2021/12/20 08:24:09;;;;;;;1.33;0.45;;;;;12.50;102680.00;;;;5065109;28;20679;-80
2021/12/20 08:26:37;;;;;;;10.82;1.35;;;;;12.50;102679.00;;;;5067378;28;20202;-80
2021/12/20 08:29:04;;;;;;;2.08;0.70;;;;;12.50;102680.00;;;;5072738;28;20202;-80
2021/12/20 08:31:31;;;;;;;2.67;0.95;;;;;12.60;102683.00;;;;5081264;28;20206;-80
2021/12/20 08:34:00;;;;;;;2.30;0.93;;;;;12.50;102683.00;;;;5087806;28;20195;-80
2021/12/20 08:36:28;;;;;;;2.17;0.80;;;;;12.60;102679.00;;;;5076848;28;20191;-80
2021/12/20 08:38:56;;;;;;;3.78;0.90;;;;;12.60;102685.00;;;;5076545;28;20567;-80
2021/12/20 08:41:23;;;;;;;4.35;1.60;;;;;12.60;102689.00;;;;5075450;28;20209;-81
2021/12/20 08:43:50;;;;;;;3.25;1.30;;;;;12.60;102687.00;;;;5076640;28;20198;-81
2021/12/20 08:46:18;;;;;;;5.45;1.52;;;;;12.60;102689.00;;;;5083141;28;20633;-80
2021/12/20 08:48:46;;;;;;;7.20;1.13;;;;;12.60;102691.00;;;;5079185;28;20238;-83
2021/12/20 08:51:15;;;;;;;2.72;0.75;;;;;12.60;102682.00;;;;5082360;28;20214;-83
2021/12/20 08:53:43;;;;;;;3.95;0.82;;;;;12.60;102683.00;;;;5070873;28;20222;-80
2021/12/20 08:56:11;;;;;;;1.98;0.73;;;;;12.70;102680.00;;;;5078840;28;20585;-81
2021/12/20 08:58:38;;;;;;;3.55;0.77;;;;;12.70;102684.00;;;;5077103;28;20258;-80
2021/12/20 09:01:06;;;;;;;3.00;0.93;;;;;12.70;102686.00;;;;5076486;28;20198;-82
2021/12/20 09:03:33;;;;;;;2.00;0.60;;;;;12.70;102692.00;;;;5075638;28;20201;-81
2021/12/20 09:06:00;;;;;;;6.30;1.15;;;;;12.80;102694.00;;;;5080921;28;20222;-81
2021/12/20 09:08:30;;;;;;;4.65;1.30;;;;;12.80;102689.00;;;;5071462;28;20199;-81
2021/12/20 09:10:58;;;;;;;2.50;0.85;;;;;12.80;102690.00;;;;5071304;28;20199;-80
2021/12/20 09:13:25;;;;;;;7.47;1.50;;;;;12.80;102693.00;;;;5070825;28;20218;-81
2021/12/20 09:15:55;;;;;;;4.38;1.33;;;;;12.90;102685.00;;;;5068729;28;20187;-79
2021/12/20 09:18:24;;;;;;;4.15;1.48;;;;;12.90;102691.00;;;;5073385;28;20225;-82
2021/12/20 09:20:51;;;;;;;3.17;1.27;;;;;12.90;102695.00;;;;5079381;28;20198;-81
2021/12/20 09:23:18;;;;;;;1.83;1.35;;;;;13.00;102698.00;;;;5071491;28;20183;-80
2021/12/20 09:25:47;;;;;;;7.50;2.03;;;;;13.00;102702.00;;;;5070969;28;20206;-82
2021/12/20 09:28:15;;;;;;;4.72;1.50;;;;;13.00;102705.00;;;;5081859;28;20203;-81
2021/12/20 09:30:44;;;;;;;3.85;1.25;;;;;13.10;102701.00;;;;5075470;28;20201;-82
2021/12/20 09:33:12;;;;;;;3.13;0.95;;;;;13.10;102709.00;;;;5078283;28;20221;-82
2021/12/20 09:35:40;;;;;;;6.03;2.08;;;;;13.10;102707.00;;;;5071150;28;20202;-82
2021/12/20 09:38:10;;;;;;;6.03;2.78;;;;;13.20;102707.00;;;;5077497;28;20204;-82
2021/12/20 09:40:40;;;;;;;4.63;2.08;;;;;13.20;102715.00;;;;5076090;28;20201;-82
2021/12/20 09:43:10;;;;;;;11.77;4.07;;;;;13.20;102712.00;;;;5067728;28;20209;-83
2021/12/20 09:45:39;;;;;;;10.90;4.43;;;;;13.30;102706.00;;;;5079941;28;20202;-82
2021/12/20 09:48:06;;;;;;;3.70;2.03;;;;;13.30;102717.00;;;;5071934;28;20210;-82
2021/12/20 09:50:34;;;;;;;3.55;1.50;;;;;13.40;102716.00;;;;5069495;28;20234;-85
2021/12/20 09:53:04;;;;;;;7.72;1.83;;;;;13.40;102717.00;;;;5079792;28;20218;-83
2021/12/20 09:55:32;;;;;;;3.38;1.50;;;;;13.40;102715.00;;;;5073147;28;20281;-83
2021/12/20 09:58:03;;;;;;;5.00;1.92;;;;;13.50;102715.00;;;;5072601;28;20194;-83
2021/12/20 10:00:33;;;;;;;3.17;0.95;;;;;13.50;102717.00;;;;5075373;28;20198;-83
2021/12/20 10:03:00;;;;;;;5.30;1.38;;;;;13.50;102708.00;;;;5073115;28;20552;-83
2021/12/20 10:05:28;;;;;;;3.78;0.88;;;;;13.60;102704.00;;;;5068466;28;20234;-83
2021/12/20 10:07:58;;;;;;;2.42;0.40;;;;;13.60;102707.00;;;;5078704;28;20215;-82
2021/12/20 10:10:39;;;;;;;4.30;1.55;;;;;13.50;102711.00;;;;5069362;28;20204;-83
2021/12/20 10:13:06;;;;;;;3.80;0.90;;;;;13.70;102714.00;;;;5077972;28;20222;-84
2021/12/20 10:15:37;;;;;;;2.30;0.60;;;;;13.70;102718.00;;;;5068428;28;20179;-85
2021/12/20 10:18:06;;;;;;;3.78;0.93;;;;;13.70;102713.00;;;;5069061;28;20202;-84
2021/12/20 10:20:35;;;;;;;3.40;0.68;;;;;13.70;102721.00;;;;5076723;28;20209;-85
2021/12/20 10:23:12;;;;;;;3.22;1.05;;;;;13.70;102719.00;;;;5069915;28;20195;-84
2021/12/20 10:25:40;;;;;;;3.92;0.93;;;;;13.80;102724.00;;;;5069102;28;20675;-83
2021/12/20 10:28:10;;;;;;;4.00;0.88;;;;;13.80;102724.00;;;;5073747;28;20195;-83
2021/12/20 10:30:41;;;;;;;4.65;0.68;;;;;13.80;102724.00;;;;5072832;28;20596;-83
2021/12/20 10:33:14;;;;;;;5.80;1.02;;;;;13.80;102725.00;;;;5077476;28;20218;-83
2021/12/20 10:35:46;;;;;;;3.47;0.90;;;;;13.90;102720.00;;;;5075397;28;20199;-84
2021/12/20 10:38:25;;;;;;;3.95;1.05;;;;;13.90;102720.00;;;;5080880;28;20678;-83
2021/12/20 10:40:56;;;;;;;2.58;0.57;;;;;13.90;102720.00;;;;5071642;28;20186;-83
2021/12/20 10:43:26;;;;;;;8.13;1.10;;;;;14.00;102720.00;;;;5072166;28;20198;-83
2021/12/20 10:45:56;;;;;;;2.17;0.95;;;;;14.00;102709.00;;;;5075611;28;20191;-84
2021/12/20 10:48:33;;;;;;;2.50;0.68;;;;;14.00;102715.00;;;;5073350;28;20198;-83
2021/12/20 10:51:01;;;;;;;1.88;0.40;;;;;14.10;102713.00;;;;5076522;28;20297;-84
2021/12/20 10:53:29;;;;;;;5.70;0.85;;;;;14.10;102716.00;;;;5069119;28;20221;-83
2021/12/20 10:55:58;;;;;;;5.13;0.73;;;;;14.10;102718.00;;;;5078988;28;20581;-83
2021/12/20 10:58:32;;;;;;;3.00;0.85;;;;;14.10;102714.00;;;;5074152;28;20194;-85
2021/12/20 11:01:17;;;;;;;2.08;0.50;;;;;14.10;102711.00;;;;5071421;28;20298;-84
2021/12/20 11:03:54;;;;;;;2.08;0.60;;;;;14.20;102721.00;;;;5082521;28;20201;-85
2021/12/20 11:06:39;;;;;;;5.25;0.85;;;;;14.20;102713.00;;;;5072379;28;20221;-85
2021/12/20 11:09:15;;;;;;;3.15;1.10;;;;;14.20;102710.00;;;;5074519;28;21168;-85
2021/12/20 11:11:47;;;;;;;4.63;1.30;;;;;14.20;102700.00;;;;5074091;28;20198;-84
2021/12/20 11:14:17;;;;;;;3.78;1.10;;;;;14.30;102712.00;;;;5080473;28;20214;-86
2021/12/20 11:16:49;;;;;;;3.25;1.25;;;;;14.30;102712.00;;;;5085895;28;20647;-86
2021/12/20 11:19:22;;;;;;;1.75;0.63;;;;;14.30;102714.00;;;;5084677;28;20202;-86
2021/12/20 11:21:55;;;;;;;4.93;0.47;;;;;14.30;102711.00;;;;5091472;28;20201;-86
2021/12/20 11:24:25;;;;;;;1.85;0.45;;;;;14.30;102708.00;;;;5092085;27;20205;-85
2021/12/20 11:26:53;;;;;;;1.42;0.65;;;;;14.30;102706.00;;;;5084577;28;20225;-86
2021/12/20 11:29:21;;;;;;;4.90;1.05;;;;;14.30;102708.00;;;;5080847;28;20195;-85
2021/12/20 11:31:52;;;;;;;4.97;0.70;;;;;14.40;102706.00;;;;5078074;28;20194;-84
2021/12/20 11:34:20;;;;;;;5.13;1.40;;;;;14.40;102709.00;;;;5080124;28;20218;-86
2021/12/20 11:36:48;;;;;;;0.93;0.55;;;;;14.40;102704.00;;;;5076564;28;20199;-85
2021/12/20 11:39:15;;;;;;;4.47;0.80;;;;;14.40;102703.00;;;;5074289;28;20199;-86
2021/12/20 11:41:43;;;;;;;1.38;0.55;;;;;14.50;102706.00;;;;5082779;28;20226;-85
2021/12/20 11:44:15;;;;;;;6.45;1.15;;;;;14.40;102706.00;;;;5080923;28;20191;-86
2021/12/20 11:47:00;;;;;;;4.25;0.95;;;;;14.40;102700.00;;;;5075989;28;20207;-84
2021/12/20 11:49:28;;;;;;;3.83;0.60;;;;;14.50;102701.00;;;;5071979;28;20202;-84
2021/12/20 11:52:00;;;;;;;4.13;1.20;;;;;14.50;102700.00;;;;5077342;28;20210;-84
2021/12/20 11:54:40;;;;;;;4.15;0.88;;;;;14.50;102695.00;;;;5078470;28;20226;-84
2021/12/20 11:57:29;;;;;;;2.15;0.60;;;;;14.60;102703.00;;;;5074655;28;20199;-85
2021/12/20 12:00:00;;;;;;;1.17;0.52;;;;;14.60;102696.00;;;;5073437;28;20206;-86
2021/12/20 12:02:30;;;;;;;2.92;0.47;;;;;14.70;102694.00;;;;5081755;28;20222;-85
2021/12/20 12:04:59;;;;;;;2.40;1.02;;;;;14.70;102698.00;;;;5075541;28;20195;-83
2021/12/20 12:07:30;;;;;;;3.65;1.05;;;;;14.70;102702.00;;;;5080433;28;20580;-84
2021/12/20 12:10:01;;;;;;;3.05;1.55;;;;;14.70;102702.00;;;;5081510;28;20205;-83
2021/12/20 12:12:29;;;;;;;3.03;0.90;;;;;14.70;102704.00;;;;5074912;28;20190;-83
2021/12/20 12:15:08;;;;;;;2.33;0.57;;;;;14.70;102698.00;;;;5077511;28;20586;-83
2021/12/20 12:17:53;;;;;;;2.55;1.00;;;;;14.60;102695.00;;;;5078713;28;20264;-83
2021/12/20 12:20:54;;;;;;;3.00;0.73;;;;;14.60;102701.00;;;;5072535;28;20205;-82
2021/12/20 12:23:24;;;;;;;7.75;1.20;;;;;14.60;102695.00;;;;5074078;28;20207;-80
2021/12/20 12:25:54;;;;;;;5.72;1.05;;;;;14.60;102696.00;;;;5091743;28;20210;-81
2021/12/20 12:28:24;;;;;;;4.65;0.70;;;;;14.60;102699.00;;;;5083514;28;20268;-81
2021/12/20 12:31:01;;;;;;;2.53;0.52;;;;;14.50;102693.00;;;;5086646;28;20194;-80
2021/12/20 12:33:32;;;;;;;1.73;0.63;;;;;14.50;102690.00;;;;5075522;28;20230;-81
2021/12/20 12:36:02;;;;;;;3.03;0.73;;;;;14.50;102683.00;;;;5087204;28;20202;-80